Time,TemperatureF,DewpointF,PressureIn,WindDirection,WindDirectionDegrees,WindSpeedMPH,WindSpeedGustMPH,Humidity,HourlyPrecipIn,Conditions,Clouds,dailyrainin,SolarRadiationWatts/m^2,SoftwareType,DateUTC
2013-07-03 00:01:00,65.2,60.2,30.10,NNW,335,4.6,4.6,84,0.00,OVC,,0.01,0.0,WeatherDisplay:10.37,2013-07-03 04:01:00,
2013-07-03 00:03:00,65.2,60.2,30.10,North,351,3.0,3.0,84,0.00,RA,,0.00,0.0,WeatherDisplay:10.37,2013-07-03 04:03:00,
2013-07-03 00:04:00,65.2,60.2,30.10,North,355,3.5,3.5,84,0.00,RA,,0.00,0.0,WeatherDisplay:10.37,2013-07-03 04:04:00,
2013-07-03 00:09:00,65.2,60.2,30.10,North,355,3.0,3.0,84,0.00,RA,,0.00,0.0,WeatherDisplay:10.37,2013-07-03 04:09:00,
2013-07-03 00:14:00,65.2,60.2,30.09,North,355,2.0,2.0,84,0.00,OVC,,0.00,0.0,WeatherDisplay:10.37,2013-07-03 04:14:00,
2013-07-03 00:19:00,65.1,60.1,30.09,NNE,29,3.5,3.5,84,0.00,OVC,,0.00,0.0,WeatherDisplay:10.37,2013-07-03 04:19:00,
2013-07-03 00:24:00,65.1,60.1,30.09,NNE,29,0.0,0.0,84,0.00,OVC,,0.00,0.0,WeatherDisplay:10.37,2013-07-03 04:24:00,
2013-07-03 00:29:00,65.1,60.1,30.09,ENE,73,3.5,3.5,84,0.00,OVC,,0.00,0.0,WeatherDisplay:10.37,2013-07-03 04:29:00,
2013-07-03 00:31:00,65.1,60.1,30.09,NE,47,3.5,3.5,84,0.00,OVC,,0.00,0.0,WeatherDisplay:10.37,2013-07-03 04:31:00,
2013-07-03 00:32:00,65.1,60.1,30.09,NE,46,3.5,3.5,84,0.00,OVC,,0.00,0.0,WeatherDisplay:10.37,2013-07-03 04:32:00,
2013-07-03 00:37:00,65.1,60.1,30.09,NNE,27,4.6,4.6,84,0.00,OVC,,0.00,0.0,WeatherDisplay:10.37,2013-07-03 04:37:00,
2013-07-03 00:42:00,65.1,60.1,30.09,NE,55,2.3,2.3,84,0.00,OVC,,0.00,0.0,WeatherDisplay:10.37,2013-07-03 04:42:00,
2013-07-03 00:45:00,65.0,60.0,30.09,NE,55,3.5,0.0,84,0.00,OVC,,0.00,0.0,WeatherDisplay:10.37,2013-07-03 04:45:00,
2013-07-03 00:46:00,65.0,60.0,30.09,NE,55,3.5,0.0,84,0.00,OVC,,0.00,0.0,WeatherDisplay:10.37,2013-07-03 04:46:00,
2013-07-03 00:51:00,65.0,60.0,30.09,NNW,341,5.0,5.0,84,0.00,OVC,,0.00,0.0,WeatherDisplay:10.37,2013-07-03 04:51:00,
2013-07-03 00:53:00,65.0,60.0,30.09,North,5,1.2,1.2,84,0.00,OVC,,0.00,0.0,WeatherDisplay:10.37,2013-07-03 04:53:00,
2013-07-03 00:58:00,65.0,60.0,30.09,North,5,3.5,3.5,84,0.00,OVC,,0.00,0.0,WeatherDisplay:10.37,2013-07-03 04:58:00,
2013-07-03 01:03:00,64.9,59.9,30.08,NNE,18,3.5,3.5,84,0.00,OVC,,0.00,0.0,WeatherDisplay:10.37,2013-07-03 05:03:00,
2013-07-03 01:08:00,64.8,59.9,30.08,NNE,13,6.0,6.0,84,0.00,OVC,,0.00,0.0,WeatherDisplay:10.37,2013-07-03 05:08:00,
2013-07-03 01:13:00,64.8,59.9,30.08,NNW,339,4.6,4.6,84,0.00,OVC,,0.00,0.0,WeatherDisplay:10.37,2013-07-03 05:13:00,
2013-07-03 01:18:00,64.7,59.8,30.09,North,5,1.0,1.0,84,0.00,OVC,,0.00,0.0,WeatherDisplay:10.37,2013-07-03 05:18:00,
2013-07-03 01:19:00,64.7,59.8,30.09,North,5,1.2,1.2,84,0.00,OVC,,0.00,0.0,WeatherDisplay:10.37,2013-07-03 05:19:00,
2013-07-03 01:24:00,64.7,59.8,30.09,NNE,18,6.0,6.0,84,0.00,OVC,,0.00,0.0,WeatherDisplay:10.37,2013-07-03 05:24:00,
2013-07-03 01:30:00,64.6,59.7,30.09,North,360,3.5,3.5,84,0.00,OVC,,0.00,0.0,WeatherDisplay:10.37,2013-07-03 05:30:00,
2013-07-03 01:35:00,64.6,59.7,30.09,North,360,1.2,1.2,84,0.00,OVC,,0.00,0.0,WeatherDisplay:10.37,2013-07-03 05:35:00,
2013-07-03 01:41:00,64.6,59.7,30.09,North,5,3.5,3.5,84,0.00,OVC,,0.00,0.0,WeatherDisplay:10.37,2013-07-03 05:41:00,
2013-07-03 01:46:00,64.5,59.6,30.09,North,11,2.0,2.0,84,0.00,OVC,,0.00,0.0,WeatherDisplay:10.37,2013-07-03 05:46:00,
2013-07-03 01:51:00,64.5,59.6,30.09,NNW,344,4.6,4.6,84,0.00,OVC,,0.00,0.0,WeatherDisplay:10.37,2013-07-03 05:51:00,
2013-07-03 01:55:00,64.5,59.6,30.09,North,5,3.5,3.5,84,0.00,OVC,,0.00,0.0,WeatherDisplay:10.37,2013-07-03 05:55:00,
2013-07-03 01:57:00,64.5,59.6,30.09,North,5,2.3,2.3,84,0.00,OVC,,0.00,0.0,WeatherDisplay:10.37,2013-07-03 05:57:00,
2013-07-03 01:59:00,64.5,59.6,30.09,North,11,5.0,5.0,84,0.00,OVC,,0.00,0.0,WeatherDisplay:10.37,2013-07-03 05:59:00,
2013-07-03 02:02:00,64.5,59.6,30.09,NE,48,4.6,4.6,84,0.00,OVC,,0.00,0.0,WeatherDisplay:10.37,2013-07-03 06:02:00,
2013-07-03 02:08:00,64.5,59.6,30.08,NE,47,2.3,2.3,84,0.00,OVC,,0.00,0.0,WeatherDisplay:10.37,2013-07-03 06:08:00,
2013-07-03 02:13:00,64.5,59.6,30.08,NE,47,0.0,0.0,84,0.00,OVC,,0.00,0.0,WeatherDisplay:10.37,2013-07-03 06:13:00,
2013-07-03 02:16:00,64.5,59.6,30.08,NNE,30,3.5,3.5,84,0.00,OVC,,0.00,0.0,WeatherDisplay:10.37,2013-07-03 06:16:00,
2013-07-03 02:18:00,64.5,59.6,30.08,NNW,342,3.5,3.5,84,0.00,OVC,,0.00,0.0,WeatherDisplay:10.37,2013-07-03 06:18:00,
2013-07-03 02:22:00,64.4,59.5,30.08,North,349,3.5,0.0,84,0.00,OVC,,0.00,0.0,WeatherDisplay:10.37,2013-07-03 06:22:00,
2013-07-03 02:24:00,64.4,59.5,30.08,North,355,4.6,4.6,84,0.00,OVC,,0.00,0.0,WeatherDisplay:10.37,2013-07-03 06:24:00,
2013-07-03 02:26:00,64.4,59.5,30.08,North,355,3.5,3.5,84,0.00,OVC,,0.00,0.0,WeatherDisplay:10.37,2013-07-03 06:26:00,
2013-07-03 02:31:00,64.4,59.5,30.08,North,355,3.5,3.5,84,0.00,OVC,,0.00,0.0,WeatherDisplay:10.37,2013-07-03 06:31:00,
2013-07-03 02:32:00,64.4,59.5,30.08,North,355,2.3,2.3,84,0.00,OVC,,0.00,0.0,WeatherDisplay:10.37,2013-07-03 06:32:00,
2013-07-03 02:37:00,64.4,59.5,30.08,North,355,0.0,0.0,84,0.00,OVC,,0.00,0.0,WeatherDisplay:10.37,2013-07-03 06:37:00,
2013-07-03 02:42:00,64.4,59.5,30.08,North,355,3.5,3.5,84,0.00,OVC,,0.00,0.0,WeatherDisplay:10.37,2013-07-03 06:42:00,
2013-07-03 02:45:00,64.4,59.5,30.08,North,355,2.3,2.3,84,0.00,OVC,,0.00,0.0,WeatherDisplay:10.37,2013-07-03 06:45:00,
2013-07-03 02:50:00,64.4,59.5,30.08,NNW,346,4.0,4.0,84,0.00,OVC,,0.00,0.0,WeatherDisplay:10.37,2013-07-03 06:50:00,
2013-07-03 02:56:00,64.4,59.5,30.08,North,359,1.0,4.0,84,0.00,OVC,,0.00,0.0,WeatherDisplay:10.37,2013-07-03 06:56:00,
2013-07-03 03:00:00,64.4,59.5,30.08,NNW,348,3.5,3.5,84,0.00,OVC,,0.00,0.0,WeatherDisplay:10.37,2013-07-03 07:00:00,
2013-07-03 03:05:00,64.4,59.5,30.08,NNE,19,3.0,3.0,84,0.00,OVC,,0.00,0.0,WeatherDisplay:10.37,2013-07-03 07:05:00,
2013-07-03 03:11:00,64.4,59.5,30.08,North,3,0.0,5.0,84,0.00,OVC,,0.00,0.0,WeatherDisplay:10.37,2013-07-03 07:11:00,
2013-07-03 03:16:00,64.4,59.5,30.08,NNE,12,2.0,5.0,84,0.00,OVC,,0.00,0.0,WeatherDisplay:10.37,2013-07-03 07:16:00,
2013-07-03 03:21:00,64.4,59.5,30.08,NNE,28,4.6,4.6,84,0.00,OVC,,0.00,0.0,WeatherDisplay:10.37,2013-07-03 07:21:00,
2013-07-03 03:27:00,64.4,59.5,30.08,North,11,4.6,4.6,84,0.00,OVC,,0.00,0.0,WeatherDisplay:10.37,2013-07-03 07:27:00,
2013-07-03 03:32:00,64.4,59.5,30.08,NNW,344,3.5,3.5,84,0.00,OVC,,0.00,0.0,WeatherDisplay:10.37,2013-07-03 07:32:00,
2013-07-03 03:37:00,64.3,59.4,30.09,NNE,13,3.5,3.5,84,0.00,OVC,,0.00,0.0,WeatherDisplay:10.37,2013-07-03 07:37:00,
2013-07-03 03:38:00,64.3,59.4,30.09,NNE,13,3.5,3.5,84,0.00,OVC,,0.00,0.0,WeatherDisplay:10.37,2013-07-03 07:38:00,
2013-07-03 03:43:00,64.3,59.4,30.09,North,5,3.5,3.5,84,0.00,OVC,,0.00,0.0,WeatherDisplay:10.37,2013-07-03 07:43:00,
2013-07-03 03:49:00,64.3,59.4,30.08,NNE,21,5.8,5.8,84,0.00,OVC,,0.00,0.0,WeatherDisplay:10.37,2013-07-03 07:49:00,
2013-07-03 03:51:00,64.3,59.4,30.08,NNE,21,3.5,3.5,84,0.00,OVC,,0.00,0.0,WeatherDisplay:10.37,2013-07-03 07:51:00,
2013-07-03 03:56:00,64.3,59.4,30.08,NNE,14,0.0,2.0,84,0.00,OVC,,0.00,0.0,WeatherDisplay:10.37,2013-07-03 07:56:00,
2013-07-03 04:01:00,64.3,59.4,30.09,NNE,21,3.5,3.5,84,0.00,OVC,,0.00,0.0,WeatherDisplay:10.37,2013-07-03 08:01:00,
2013-07-03 04:02:00,64.3,59.4,30.08,NNE,19,4.0,4.0,84,0.00,OVC,,0.00,0.0,WeatherDisplay:10.37,2013-07-03 08:02:00,
2013-07-03 04:07:00,64.3,59.4,30.08,NNE,21,3.5,3.5,84,0.00,OVC,,0.00,0.0,WeatherDisplay:10.37,2013-07-03 08:07:00,
2013-07-03 04:09:00,64.2,59.3,30.08,NNE,21,3.5,3.5,84,0.00,OVC,,0.00,0.0,WeatherDisplay:10.37,2013-07-03 08:09:00,
2013-07-03 04:15:00,64.2,59.6,30.08,North,5,4.6,4.6,85,0.00,OVC,,0.00,0.0,WeatherDisplay:10.37,2013-07-03 08:15:00,
2013-07-03 04:19:00,64.3,59.7,30.09,North,5,3.5,3.5,85,0.00,OVC,,0.00,0.0,WeatherDisplay:10.37,2013-07-03 08:19:00,
2013-07-03 04:24:00,64.2,59.6,30.08,NE,52,3.5,3.5,85,0.00,OVC,,0.00,0.0,WeatherDisplay:10.37,2013-07-03 08:24:00,
2013-07-03 04:29:00,64.2,59.6,30.09,North,5,4.6,4.6,85,0.00,OVC,,0.00,0.0,WeatherDisplay:10.37,2013-07-03 08:29:00,
2013-07-03 04:34:00,64.2,59.6,30.09,North,5,2.3,0.0,85,0.00,OVC,,0.00,0.0,WeatherDisplay:10.37,2013-07-03 08:34:00,
2013-07-03 04:39:00,64.2,59.6,30.09,North,5,3.5,3.5,85,0.00,OVC,,0.00,0.0,WeatherDisplay:10.37,2013-07-03 08:39:00,
2013-07-03 04:45:00,64.2,59.6,30.10,North,9,0.0,0.0,85,0.00,OVC,,0.00,0.0,WeatherDisplay:10.37,2013-07-03 08:45:00,
2013-07-03 04:50:00,64.2,59.6,30.10,North,5,1.2,1.2,85,0.00,OVC,,0.00,0.0,WeatherDisplay:10.37,2013-07-03 08:50:00,
2013-07-03 04:54:00,64.2,59.6,30.09,North,5,3.5,3.5,85,0.00,OVC,,0.00,0.0,WeatherDisplay:10.37,2013-07-03 08:54:00,
2013-07-03 04:56:00,64.2,59.5,30.09,North,6,1.0,3.0,85,0.00,OVC,,0.00,0.0,WeatherDisplay:10.37,2013-07-03 08:56:00,
2013-07-03 05:01:00,64.2,59.6,30.09,North,5,3.5,3.5,85,0.00,OVC,,0.00,0.0,WeatherDisplay:10.37,2013-07-03 09:01:00,
2013-07-03 05:06:00,64.2,59.6,30.09,North,355,4.6,4.6,85,0.00,OVC,,0.00,5.0,WeatherDisplay:10.37,2013-07-03 09:06:00,
2013-07-03 05:12:00,64.1,59.5,30.09,NNE,19,3.5,3.5,85,0.00,OVC,,0.00,0.0,WeatherDisplay:10.37,2013-07-03 09:12:00,
2013-07-03 05:18:00,64.1,59.5,30.10,NE,43,0.0,0.0,85,0.00,OVC,,0.00,0.0,WeatherDisplay:10.37,2013-07-03 09:18:00,
2013-07-03 05:23:00,64.1,59.5,30.10,NE,42,3.5,3.5,85,0.00,OVC,,0.00,5.0,WeatherDisplay:10.37,2013-07-03 09:23:00,
2013-07-03 05:29:00,64.1,59.5,30.10,NE,41,1.0,0.0,85,0.00,OVC,,0.00,9.0,WeatherDisplay:10.37,2013-07-03 09:29:00,
2013-07-03 05:34:00,64.2,59.6,30.10,NE,36,2.0,2.0,85,0.00,OVC,,0.00,14.0,WeatherDisplay:10.37,2013-07-03 09:34:00,
2013-07-03 05:39:00,64.2,59.6,30.10,NNE,30,3.5,3.5,85,0.00,OVC,,0.00,16.0,WeatherDisplay:10.37,2013-07-03 09:39:00,
2013-07-03 05:41:00,64.2,59.6,30.10,NNE,33,2.0,4.0,85,0.00,OVC,,0.00,16.0,WeatherDisplay:10.37,2013-07-03 09:41:00,
2013-07-03 05:46:00,64.2,59.6,30.10,NNE,31,2.3,2.3,85,0.00,OVC,,0.00,16.0,WeatherDisplay:10.37,2013-07-03 09:46:00,
2013-07-03 05:49:00,64.2,59.6,30.10,NNE,32,3.5,3.5,85,0.00,OVC,,0.00,19.0,WeatherDisplay:10.37,2013-07-03 09:49:00,
2013-07-03 05:50:00,64.2,59.6,30.11,NNE,32,3.5,3.5,85,0.00,OVC,,0.00,19.0,WeatherDisplay:10.37,2013-07-03 09:50:00,
2013-07-03 05:55:00,64.2,59.6,30.11,NNE,32,1.2,1.2,85,0.00,OVC,,0.00,18.0,WeatherDisplay:10.37,2013-07-03 09:55:00,
2013-07-03 06:00:00,64.3,59.7,30.11,NNE,32,3.0,3.0,85,0.00,OVC,,0.00,16.0,WeatherDisplay:10.37,2013-07-03 10:00:00,
2013-07-03 06:04:00,64.3,59.7,30.11,NNE,30,0.0,0.0,85,0.00,OVC,,0.00,18.0,WeatherDisplay:10.37,2013-07-03 10:04:00,
2013-07-03 06:05:00,64.3,59.7,30.11,NNE,30,0.0,0.0,85,0.00,OVC,,0.00,19.0,WeatherDisplay:10.37,2013-07-03 10:05:00,
2013-07-03 06:11:00,64.4,59.7,30.11,NNE,30,1.0,2.0,85,0.00,OVC,,0.00,23.0,WeatherDisplay:10.37,2013-07-03 10:11:00,
2013-07-03 06:16:00,64.4,59.8,30.11,NNE,30,0.0,3.0,85,0.00,OVC,,0.00,21.0,WeatherDisplay:10.37,2013-07-03 10:16:00,
2013-07-03 06:21:00,64.4,59.8,30.11,NNE,31,1.0,3.0,85,0.00,OVC,,0.00,23.0,WeatherDisplay:10.37,2013-07-03 10:21:00,
2013-07-03 06:26:00,64.4,59.8,30.12,NNE,32,0.0,0.0,85,0.00,OVC,,0.00,25.0,WeatherDisplay:10.37,2013-07-03 10:26:00,
2013-07-03 06:31:00,64.5,59.9,30.12,NNE,32,0.0,0.0,85,0.00,OVC,,0.00,30.0,WeatherDisplay:10.37,2013-07-03 10:31:00,
2013-07-03 06:36:00,64.5,59.9,30.12,NNE,32,0.0,0.0,85,0.00,OVC,,0.00,49.0,WeatherDisplay:10.37,2013-07-03 10:36:00,
2013-07-03 06:41:00,64.5,59.9,30.12,NNE,32,0.0,0.0,85,0.00,OVC,,0.00,56.0,WeatherDisplay:10.37,2013-07-03 10:41:00,
2013-07-03 06:46:00,64.6,60.0,30.12,NNE,32,0.0,0.0,85,0.00,OVC,,0.00,79.0,WeatherDisplay:10.37,2013-07-03 10:46:00,
2013-07-03 06:49:00,64.7,60.1,30.12,NNE,32,1.2,0.0,85,0.00,OVC,,0.00,81.0,WeatherDisplay:10.37,2013-07-03 10:49:00,
2013-07-03 06:54:00,64.8,60.2,30.12,NNE,32,0.0,0.0,85,0.00,OVC,,0.00,90.0,WeatherDisplay:10.37,2013-07-03 10:54:00,
2013-07-03 06:55:00,64.8,60.2,30.12,NNE,32,0.0,0.0,85,0.00,OVC,,0.00,90.0,WeatherDisplay:10.37,2013-07-03 10:55:00,
2013-07-03 06:57:00,64.9,60.3,30.12,NNE,32,0.0,0.0,85,0.00,OVC,,0.00,81.0,WeatherDisplay:10.37,2013-07-03 10:57:00,
2013-07-03 07:02:00,65.0,60.0,30.12,NNE,32,0.0,0.0,84,0.00,OVC,,0.00,47.0,WeatherDisplay:10.37,2013-07-03 11:02:00,
2013-07-03 07:07:00,65.1,60.5,30.13,NNE,32,0.0,0.0,85,0.00,OVC,,0.00,39.0,WeatherDisplay:10.37,2013-07-03 11:07:00,
2013-07-03 07:09:00,65.1,60.5,30.13,NNE,32,0.0,0.0,85,0.00,OVC,,0.00,33.0,WeatherDisplay:10.37,2013-07-03 11:09:00,
2013-07-03 07:10:00,65.1,60.5,30.13,NNE,32,0.0,0.0,85,0.00,OVC,,0.00,33.0,WeatherDisplay:10.37,2013-07-03 11:10:00,
2013-07-03 07:15:00,65.2,60.2,30.13,NNE,32,0.0,0.0,84,0.00,OVC,,0.00,54.0,WeatherDisplay:10.37,2013-07-03 11:15:00,
2013-07-03 07:20:00,65.2,60.6,30.13,NNE,32,0.0,0.0,85,0.00,OVC,,0.00,81.0,WeatherDisplay:10.37,2013-07-03 11:20:00,
2013-07-03 07:25:00,65.3,60.3,30.12,NNE,32,3.5,3.5,84,0.00,OVC,,0.00,118.0,WeatherDisplay:10.37,2013-07-03 11:25:00,
2013-07-03 07:28:00,65.5,60.9,30.12,NNE,32,2.3,2.3,85,0.00,OVC,,0.00,183.0,WeatherDisplay:10.37,2013-07-03 11:28:00,
2013-07-03 07:33:00,65.7,60.7,30.13,NNE,32,3.0,3.0,84,0.00,OVC,,0.00,195.0,WeatherDisplay:10.37,2013-07-03 11:33:00,
2013-07-03 07:39:00,66.1,61.1,30.13,NNE,32,2.3,2.3,84,0.00,OVC,,0.00,139.0,WeatherDisplay:10.37,2013-07-03 11:39:00,
2013-07-03 07:44:00,66.3,61.0,30.13,NNE,32,2.3,2.3,83,0.00,OVC,,0.00,165.0,WeatherDisplay:10.37,2013-07-03 11:44:00,
2013-07-03 07:45:00,66.4,61.1,30.13,NNE,32,2.3,2.3,83,0.00,OVC,,0.00,165.0,WeatherDisplay:10.37,2013-07-03 11:45:00,
2013-07-03 07:50:00,66.7,61.4,30.14,NNE,32,2.3,2.3,83,0.00,BKN,,0.00,127.0,WeatherDisplay:10.37,2013-07-03 11:50:00,
2013-07-03 07:55:00,66.8,61.5,30.13,NNE,32,0.0,0.0,83,0.00,BKN,,0.00,183.0,WeatherDisplay:10.37,2013-07-03 11:55:00,
2013-07-03 07:59:00,67.1,62.1,30.14,NNE,32,0.0,0.0,84,0.00,BKN,,0.00,144.0,WeatherDisplay:10.37,2013-07-03 11:59:00,
2013-07-03 08:03:00,67.2,61.5,30.14,NNE,32,1.2,1.2,82,0.00,BKN,,0.00,172.0,WeatherDisplay:10.37,2013-07-03 12:03:00,
2013-07-03 08:08:00,67.4,62.1,30.13,NNE,29,1.2,0.0,83,0.00,BKN,,0.00,230.0,WeatherDisplay:10.37,2013-07-03 12:08:00,
2013-07-03 08:12:00,67.6,62.3,30.13,NNE,30,2.3,2.3,83,0.00,BKN,,0.00,221.0,WeatherDisplay:10.37,2013-07-03 12:12:00,
2013-07-03 08:16:00,67.8,62.1,30.13,NNE,30,3.5,3.5,82,0.00,BKN,,0.00,216.0,WeatherDisplay:10.37,2013-07-03 12:16:00,
2013-07-03 08:20:00,68.0,62.3,30.13,NNE,30,0.0,0.0,82,0.00,BKN,,0.00,225.0,WeatherDisplay:10.37,2013-07-03 12:20:00,
2013-07-03 08:25:00,68.3,62.6,30.14,NNE,30,1.2,0.0,82,0.00,BKN,,0.00,114.0,WeatherDisplay:10.37,2013-07-03 12:25:00,
2013-07-03 08:30:00,68.3,62.6,30.14,NNE,31,1.2,1.2,82,0.00,BKN,,0.00,104.0,WeatherDisplay:10.37,2013-07-03 12:30:00,
2013-07-03 08:36:00,68.3,62.2,30.14,NNE,31,0.0,1.0,81,0.00,BKN,,0.00,153.0,WeatherDisplay:10.37,2013-07-03 12:36:00,
2013-07-03 08:41:00,68.3,62.6,30.14,NNE,32,0.0,1.0,82,0.00,BKN,,0.00,183.0,WeatherDisplay:10.37,2013-07-03 12:41:00,
2013-07-03 08:46:00,68.1,62.4,30.14,NNE,32,0.0,0.0,82,0.00,BKN,,0.00,192.0,WeatherDisplay:10.37,2013-07-03 12:46:00,
2013-07-03 08:47:00,68.1,62.4,30.14,NNE,32,0.0,0.0,82,0.00,BKN,,0.00,190.0,WeatherDisplay:10.37,2013-07-03 12:47:00,
2013-07-03 08:52:00,68.1,62.7,30.14,NNE,32,0.0,0.0,83,0.00,BKN,,0.00,178.0,WeatherDisplay:10.37,2013-07-03 12:52:00,
2013-07-03 08:57:00,68.1,62.4,30.14,NNE,32,1.2,1.2,82,0.00,BKN,,0.00,169.0,WeatherDisplay:10.37,2013-07-03 12:57:00,
2013-07-03 09:02:00,68.1,62.7,30.14,NNE,32,2.3,2.3,83,0.00,BKN,,0.00,216.0,WeatherDisplay:10.37,2013-07-03 13:02:00,
2013-07-03 09:07:00,68.3,62.9,30.13,NE,34,2.3,2.3,83,0.00,BKN,,0.00,322.0,WeatherDisplay:10.37,2013-07-03 13:07:00,
2013-07-03 09:12:00,68.5,62.8,30.14,NE,35,2.3,2.3,82,0.00,BKN,,0.00,236.0,WeatherDisplay:10.37,2013-07-03 13:12:00,
2013-07-03 09:17:00,68.8,63.1,30.14,NE,35,0.0,0.0,82,0.00,OVC,,0.00,176.0,WeatherDisplay:10.37,2013-07-03 13:17:00,
2013-07-03 09:22:00,68.9,63.2,30.14,NE,35,1.2,1.2,82,0.00,OVC,,0.00,172.0,WeatherDisplay:10.37,2013-07-03 13:22:00,
2013-07-03 09:26:00,69.0,63.3,30.14,NE,35,0.0,0.0,82,0.00,OVC,,0.00,169.0,WeatherDisplay:10.37,2013-07-03 13:26:00,
2013-07-03 09:31:00,68.8,62.7,30.14,NE,35,0.0,0.0,81,0.00,OVC,,0.00,199.0,WeatherDisplay:10.37,2013-07-03 13:31:00,
2013-07-03 09:36:00,68.8,62.7,30.14,NE,35,0.0,0.0,81,0.00,OVC,,0.00,227.0,WeatherDisplay:10.37,2013-07-03 13:36:00,
2013-07-03 09:37:00,68.8,63.1,30.14,NE,35,0.0,0.0,82,0.00,OVC,,0.00,220.0,WeatherDisplay:10.37,2013-07-03 13:37:00,
2013-07-03 09:42:00,69.0,63.6,30.14,NE,35,0.0,0.0,83,0.00,OVC,,0.00,230.0,WeatherDisplay:10.37,2013-07-03 13:42:00,
2013-07-03 09:47:00,69.2,64.2,30.14,NE,36,0.0,0.0,84,0.00,OVC,,0.00,248.0,WeatherDisplay:10.37,2013-07-03 13:47:00,
2013-07-03 09:53:00,69.3,63.2,30.14,NE,36,0.0,0.0,81,0.00,OVC,,0.00,243.0,WeatherDisplay:10.37,2013-07-03 13:53:00,
2013-07-03 09:58:00,69.3,63.6,30.14,NE,36,0.0,0.0,82,0.00,OVC,,0.00,141.0,WeatherDisplay:10.37,2013-07-03 13:58:00,
2013-07-03 10:03:00,69.2,63.1,30.14,NE,35,0.0,0.0,81,0.00,OVC,,0.00,237.0,WeatherDisplay:10.37,2013-07-03 14:03:00,
2013-07-03 10:06:00,69.2,63.5,30.14,NE,35,0.0,0.0,82,0.00,OVC,,0.00,213.0,WeatherDisplay:10.37,2013-07-03 14:06:00,
2013-07-03 10:09:00,69.2,63.5,30.14,NE,35,0.0,0.0,82,0.00,OVC,,0.00,223.0,WeatherDisplay:10.37,2013-07-03 14:09:00,
2013-07-03 10:15:00,69.3,63.9,30.14,NE,35,0.0,0.0,83,0.00,OVC,,0.00,216.0,WeatherDisplay:10.37,2013-07-03 14:15:00,
2013-07-03 10:17:00,69.2,63.5,30.14,NE,35,0.0,0.0,82,0.00,OVC,,0.00,207.0,WeatherDisplay:10.37,2013-07-03 14:17:00,
2013-07-03 10:22:00,69.2,63.5,30.14,NE,35,0.0,0.0,82,0.00,OVC,,0.00,267.0,WeatherDisplay:10.37,2013-07-03 14:22:00,
2013-07-03 10:30:00,69.3,63.9,30.14,NE,35,0.0,0.0,83,0.00,OVC,,0.00,221.0,WeatherDisplay:10.37,2013-07-03 14:30:00,
2013-07-03 10:32:00,69.3,63.6,30.14,NE,35,0.0,0.0,82,0.00,OVC,,0.00,223.0,WeatherDisplay:10.37,2013-07-03 14:32:00,
2013-07-03 10:38:00,69.6,64.5,30.14,NE,35,0.0,0.0,84,0.00,OVC,,0.00,229.0,WeatherDisplay:10.37,2013-07-03 14:38:00,
2013-07-03 10:40:00,69.7,64.3,30.14,NE,35,0.0,0.0,83,0.00,OVC,,0.00,227.0,WeatherDisplay:10.37,2013-07-03 14:40:00,
2013-07-03 10:41:00,69.7,64.3,30.14,NE,35,0.0,0.0,83,0.00,OVC,,0.00,223.0,WeatherDisplay:10.37,2013-07-03 14:41:00,
2013-07-03 10:46:00,69.8,64.1,30.14,NE,34,0.0,0.0,82,0.00,OVC,,0.00,176.0,WeatherDisplay:10.37,2013-07-03 14:46:00,
2013-07-03 10:51:00,69.8,64.1,30.14,NE,34,0.0,0.0,82,0.00,OVC,,0.00,197.0,WeatherDisplay:10.37,2013-07-03 14:51:00,
2013-07-03 10:56:00,69.9,64.5,30.14,NE,34,1.2,0.0,83,0.00,OVC,,0.00,209.0,WeatherDisplay:10.37,2013-07-03 14:56:00,
2013-07-03 11:01:00,70.0,64.6,30.14,NE,34,0.0,0.0,83,0.00,OVC,,0.00,272.0,WeatherDisplay:10.37,2013-07-03 15:01:00,
2013-07-03 11:03:00,70.1,64.7,30.14,NE,34,0.0,0.0,83,0.00,OVC,,0.00,283.0,WeatherDisplay:10.37,2013-07-03 15:03:00,
2013-07-03 11:05:00,70.2,64.8,30.14,NE,34,0.0,0.0,83,0.00,OVC,,0.00,313.0,WeatherDisplay:10.37,2013-07-03 15:05:00,
2013-07-03 11:11:00,70.6,65.2,30.14,NE,34,0.0,0.0,83,0.00,OVC,,0.00,260.0,WeatherDisplay:10.37,2013-07-03 15:11:00,
2013-07-03 11:16:00,70.8,65.4,30.14,NE,34,0.0,0.0,83,0.00,OVC,,0.00,343.0,WeatherDisplay:10.37,2013-07-03 15:16:00,
2013-07-03 11:21:00,71.0,65.3,30.14,NE,34,0.0,1.0,82,0.00,OVC,,0.00,301.0,WeatherDisplay:10.37,2013-07-03 15:21:00,
2013-07-03 11:26:00,71.3,65.5,30.14,NE,34,0.0,0.0,82,0.00,OVC,,0.00,250.0,WeatherDisplay:10.37,2013-07-03 15:26:00,
2013-07-03 11:28:00,71.4,65.6,30.14,NE,34,0.0,0.0,82,0.00,OVC,,0.00,281.0,WeatherDisplay:10.37,2013-07-03 15:28:00,
2013-07-03 11:33:00,71.5,65.7,30.14,NE,34,0.0,0.0,82,0.00,OVC,,0.00,350.0,WeatherDisplay:10.37,2013-07-03 15:33:00,
2013-07-03 11:39:00,71.5,65.7,30.14,NE,34,0.0,0.0,82,0.00,OVC,,0.00,364.0,WeatherDisplay:10.37,2013-07-03 15:39:00,
2013-07-03 11:40:00,71.5,65.7,30.14,NE,34,0.0,0.0,82,0.00,OVC,,0.00,374.0,WeatherDisplay:10.37,2013-07-03 15:40:00,
2013-07-03 11:45:00,71.7,66.3,30.14,NE,34,0.0,0.0,83,0.00,OVC,,0.00,385.0,WeatherDisplay:10.37,2013-07-03 15:45:00,
2013-07-03 11:50:00,71.9,65.8,30.14,NE,34,1.2,1.2,81,0.00,OVC,,0.00,381.0,WeatherDisplay:10.37,2013-07-03 15:50:00,
2013-07-03 11:52:00,72.1,66.3,30.14,NE,34,1.2,0.0,82,0.00,OVC,,0.00,403.0,WeatherDisplay:10.37,2013-07-03 15:52:00,
2013-07-03 11:54:00,72.2,66.4,30.14,NE,34,0.0,0.0,82,0.00,OVC,,0.00,446.0,WeatherDisplay:10.37,2013-07-03 15:54:00,
2013-07-03 11:59:00,72.5,66.7,30.14,NE,34,2.3,2.3,82,0.00,OVC,,0.00,392.0,WeatherDisplay:10.37,2013-07-03 15:59:00,
2013-07-03 12:05:00,72.8,66.3,30.14,NE,34,1.2,1.2,80,0.00,OVC,,0.00,302.0,WeatherDisplay:10.37,2013-07-03 16:05:00,
2013-07-03 12:10:00,73.1,66.9,30.14,NE,34,0.0,0.1,81,0.00,OVC,,0.00,269.0,WeatherDisplay:10.37,2013-07-03 16:10:00,
2013-07-03 12:16:00,73.2,66.7,30.14,NE,34,0.0,0.0,80,0.00,OVC,,0.00,380.0,WeatherDisplay:10.37,2013-07-03 16:16:00,
2013-07-03 12:21:00,73.3,67.1,30.14,NE,38,1.2,1.2,81,0.00,OVC,,0.00,394.0,WeatherDisplay:10.37,2013-07-03 16:21:00,
2013-07-03 12:26:00,73.4,66.9,30.14,NE,38,1.2,0.0,80,0.00,OVC,,0.00,450.0,WeatherDisplay:10.37,2013-07-03 16:26:00,
2013-07-03 12:32:00,73.7,67.5,30.14,NE,34,3.5,0.0,81,0.00,OVC,,0.00,459.0,WeatherDisplay:10.37,2013-07-03 16:32:00,
2013-07-03 12:38:00,74.0,67.8,30.14,NNW,344,0.0,0.0,81,0.00,OVC,,0.00,561.0,WeatherDisplay:10.37,2013-07-03 16:38:00,
2013-07-03 12:43:00,74.4,67.5,30.14,NNW,344,0.0,0.0,79,0.00,OVC,,0.00,654.0,WeatherDisplay:10.37,2013-07-03 16:43:00,
2013-07-03 12:49:00,74.9,67.9,30.14,NNW,344,0.0,0.0,79,0.00,OVC,,0.00,773.0,WeatherDisplay:10.37,2013-07-03 16:49:00,
2013-07-03 12:54:00,75.5,68.5,30.14,NNW,344,0.0,0.0,79,0.00,OVC,,0.00,522.0,WeatherDisplay:10.37,2013-07-03 16:54:00,
2013-07-03 12:59:00,75.9,67.8,30.13,NNW,344,0.0,0.1,76,0.00,OVC,,0.00,872.0,WeatherDisplay:10.37,2013-07-03 16:59:00,
2013-07-03 13:04:00,76.2,69.2,30.13,NNW,346,2.0,2.0,79,0.00,OVC,,0.00,905.0,WeatherDisplay:10.37,2013-07-03 17:04:00,
2013-07-03 13:09:00,76.5,68.7,30.13,NNW,346,1.2,0.0,77,0.00,OVC,,0.00,744.0,WeatherDisplay:10.37,2013-07-03 17:09:00,
2013-07-03 13:14:00,76.6,68.8,30.13,NNW,346,1.2,1.2,77,0.00,OVC,,0.00,680.0,WeatherDisplay:10.37,2013-07-03 17:14:00,
2013-07-03 13:19:00,76.7,68.2,30.13,NNW,348,1.2,1.2,75,0.00,OVC,,0.00,566.0,WeatherDisplay:10.37,2013-07-03 17:19:00,
2013-07-03 13:25:00,76.6,68.5,30.13,North,360,1.2,1.2,76,0.00,OVC,,0.00,918.0,WeatherDisplay:10.37,2013-07-03 17:25:00,
2013-07-03 13:30:00,76.7,68.6,30.13,North,360,0.0,0.0,76,0.00,OVC,,0.00,751.0,WeatherDisplay:10.37,2013-07-03 17:30:00,
2013-07-03 13:35:00,76.7,68.2,30.13,North,360,0.0,0.0,75,0.00,OVC,,0.00,921.0,WeatherDisplay:10.37,2013-07-03 17:35:00,
2013-07-03 13:40:00,77.0,69.2,30.13,North,360,0.0,0.0,77,0.00,OVC,,0.00,886.0,WeatherDisplay:10.37,2013-07-03 17:40:00,
2013-07-03 13:45:00,77.2,67.9,30.13,North,360,1.2,0.0,73,0.00,OVC,,0.00,921.0,WeatherDisplay:10.37,2013-07-03 17:45:00,
2013-07-03 13:51:00,77.3,69.1,30.13,North,0,0.0,1.0,76,0.00,OVC,,0.00,838.0,WeatherDisplay:10.37,2013-07-03 17:51:00,
2013-07-03 13:56:00,77.5,68.9,30.13,NNE,12,1.2,1.2,75,0.00,OVC,,0.00,844.0,WeatherDisplay:10.37,2013-07-03 17:56:00,
2013-07-03 14:01:00,77.7,68.4,30.13,NNE,22,1.2,0.0,73,0.00,OVC,,0.00,362.0,WeatherDisplay:10.37,2013-07-03 18:01:00,
2013-07-03 14:07:00,77.4,68.9,30.12,NNE,29,0.0,0.0,75,0.00,OVC,,0.00,288.0,WeatherDisplay:10.37,2013-07-03 18:07:00,
2013-07-03 14:12:00,77.0,68.5,30.12,NNE,29,0.0,0.0,75,0.00,OVC,,0.00,267.0,WeatherDisplay:10.37,2013-07-03 18:12:00,
2013-07-03 14:17:00,76.5,68.4,30.12,NNE,29,1.2,0.0,76,0.00,OVC,,0.00,501.0,WeatherDisplay:10.37,2013-07-03 18:17:00,
2013-07-03 14:22:00,76.3,68.6,30.12,NNE,30,0.0,0.0,77,0.00,OVC,,0.00,499.0,WeatherDisplay:10.37,2013-07-03 18:22:00,
2013-07-03 14:27:00,76.4,69.0,30.12,NNE,30,0.0,0.0,78,0.00,OVC,,0.00,425.0,WeatherDisplay:10.37,2013-07-03 18:27:00,
2013-07-03 14:32:00,76.3,68.9,30.12,NNE,30,0.0,0.0,78,0.00,OVC,,0.00,487.0,WeatherDisplay:10.37,2013-07-03 18:32:00,
2013-07-03 14:37:00,76.3,69.7,30.12,NNE,30,0.0,0.0,80,0.00,OVC,,0.00,504.0,WeatherDisplay:10.37,2013-07-03 18:37:00,
2013-07-03 14:43:00,76.2,69.2,30.12,NNE,30,0.0,0.0,79,0.00,OVC,,0.00,566.0,WeatherDisplay:10.37,2013-07-03 18:43:00,
2013-07-03 14:48:00,76.6,70.3,30.12,NNE,30,0.0,0.0,81,0.00,OVC,,0.00,796.0,WeatherDisplay:10.37,2013-07-03 18:48:00,
2013-07-03 14:53:00,77.0,69.6,30.12,NNE,31,1.0,0.0,78,0.00,OVC,,0.00,464.0,WeatherDisplay:10.37,2013-07-03 18:53:00,
2013-07-03 14:58:00,77.1,69.3,30.12,NNE,31,0.0,0.0,77,0.00,OVC,,0.00,534.0,WeatherDisplay:10.37,2013-07-03 18:58:00,
2013-07-03 15:03:00,77.1,69.7,30.11,NE,40,0.0,0.0,78,0.00,OVC,,0.00,617.0,WeatherDisplay:10.37,2013-07-03 19:03:00,
2013-07-03 15:08:00,77.4,70.4,30.11,NE,40,0.0,0.0,79,0.00,OVC,,0.00,436.0,WeatherDisplay:10.37,2013-07-03 19:08:00,
2013-07-03 15:13:00,77.7,70.3,30.11,NE,40,0.0,0.0,78,0.00,OVC,,0.00,645.0,WeatherDisplay:10.37,2013-07-03 19:13:00,
2013-07-03 15:19:00,77.9,69.3,30.11,NE,40,0.0,0.1,75,0.00,BKN,,0.00,529.0,WeatherDisplay:10.37,2013-07-03 19:19:00,
2013-07-03 15:24:00,77.8,70.0,30.11,NE,46,1.0,1.0,77,0.00,BKN,,0.00,510.0,WeatherDisplay:10.37,2013-07-03 19:24:00,
2013-07-03 15:29:00,78.2,70.0,30.11,NE,49,0.0,0.0,76,0.00,BKN,,0.00,721.0,WeatherDisplay:10.37,2013-07-03 19:29:00,
2013-07-03 15:34:00,78.5,70.3,30.11,NE,49,1.2,0.0,76,0.00,BKN,,0.00,877.0,WeatherDisplay:10.37,2013-07-03 19:34:00,
2013-07-03 15:39:00,78.5,69.9,30.10,NE,50,0.0,0.0,75,0.00,BKN,,0.00,325.0,WeatherDisplay:10.37,2013-07-03 19:39:00,
2013-07-03 15:44:00,78.7,69.7,30.10,NE,50,0.0,0.0,74,0.00,BKN,,0.00,853.0,WeatherDisplay:10.37,2013-07-03 19:44:00,
2013-07-03 15:49:00,78.7,70.1,30.10,NE,54,1.0,1.0,75,0.00,BKN,,0.00,803.0,WeatherDisplay:10.37,2013-07-03 19:49:00,
2013-07-03 15:54:00,78.7,70.1,30.10,NE,54,1.2,0.0,75,0.00,BKN,,0.00,772.0,WeatherDisplay:10.37,2013-07-03 19:54:00,
2013-07-03 16:00:00,79.1,70.9,30.10,ENE,64,1.2,0.0,76,0.00,BKN,,0.00,726.0,WeatherDisplay:10.37,2013-07-03 20:00:00,
2013-07-03 16:05:00,79.3,71.5,30.10,ENE,64,0.0,0.0,77,0.00,BKN,,0.00,749.0,WeatherDisplay:10.37,2013-07-03 20:05:00,
2013-07-03 16:11:00,79.9,70.9,30.10,ENE,65,0.0,1.0,74,0.00,BKN,,0.00,698.0,WeatherDisplay:10.37,2013-07-03 20:11:00,
2013-07-03 16:16:00,80.5,71.8,30.10,ENE,70,1.0,1.0,75,0.00,BKN,,0.00,680.0,WeatherDisplay:10.37,2013-07-03 20:16:00,
2013-07-03 16:22:00,80.6,71.5,30.10,ENE,72,1.2,1.2,74,0.00,BKN,,0.00,654.0,WeatherDisplay:10.37,2013-07-03 20:22:00,
2013-07-03 16:27:00,80.4,70.9,30.10,East,79,2.0,2.0,73,0.00,BKN,,0.00,633.0,WeatherDisplay:10.37,2013-07-03 20:27:00,
2013-07-03 16:32:00,80.1,70.7,30.10,East,82,2.3,2.3,73,0.00,BKN,,0.00,629.0,WeatherDisplay:10.37,2013-07-03 20:32:00,
2013-07-03 16:37:00,80.0,70.6,30.10,East,82,2.3,2.3,73,0.00,BKN,,0.00,626.0,WeatherDisplay:10.37,2013-07-03 20:37:00,
2013-07-03 16:42:00,79.4,70.0,30.09,East,82,1.2,0.0,73,0.00,BKN,,0.00,281.0,WeatherDisplay:10.37,2013-07-03 20:42:00,
2013-07-03 16:47:00,79.1,70.5,30.09,East,82,0.0,0.0,75,0.00,BKN,,0.00,594.0,WeatherDisplay:10.37,2013-07-03 20:47:00,
2013-07-03 16:52:00,79.0,70.8,30.09,East,82,0.0,0.0,76,0.00,BKN,,0.00,561.0,WeatherDisplay:10.37,2013-07-03 20:52:00,
2013-07-03 16:57:00,79.0,70.4,30.09,East,82,0.0,0.0,75,0.00,BKN,,0.00,193.0,WeatherDisplay:10.37,2013-07-03 20:57:00,
2013-07-03 17:03:00,78.9,70.7,30.09,East,82,0.0,0.0,76,0.00,BKN,,0.00,397.0,WeatherDisplay:10.37,2013-07-03 21:03:00,
2013-07-03 17:09:00,78.8,71.4,30.09,East,82,0.0,0.0,78,0.00,BKN,,0.00,531.0,WeatherDisplay:10.37,2013-07-03 21:09:00,
2013-07-03 17:14:00,78.9,71.1,30.08,East,82,0.0,0.0,77,0.00,BKN,,0.00,149.0,WeatherDisplay:10.37,2013-07-03 21:14:00,
2013-07-03 17:19:00,78.7,71.3,30.08,East,82,0.0,0.0,78,0.00,BKN,,0.00,227.0,WeatherDisplay:10.37,2013-07-03 21:19:00,
2013-07-03 17:26:00,78.6,71.5,30.08,East,82,0.0,0.0,79,0.00,BKN,,0.00,113.0,WeatherDisplay:10.37,2013-07-03 21:26:00,
2013-07-03 17:31:00,78.4,70.6,30.08,East,82,0.0,0.0,77,0.00,BKN,,0.00,264.0,WeatherDisplay:10.37,2013-07-03 21:31:00,
2013-07-03 17:36:00,78.3,70.9,30.08,East,82,0.0,0.0,78,0.00,BKN,,0.00,308.0,WeatherDisplay:10.37,2013-07-03 21:36:00,
2013-07-03 17:41:00,78.4,71.3,30.08,East,82,0.0,0.0,79,0.00,BKN,,0.00,429.0,WeatherDisplay:10.37,2013-07-03 21:41:00,
2013-07-03 17:46:00,78.5,71.4,30.08,East,82,0.0,0.0,79,0.00,BKN,,0.00,422.0,WeatherDisplay:10.37,2013-07-03 21:46:00,
2013-07-03 17:51:00,78.6,71.5,30.08,East,82,0.0,0.0,79,0.00,BKN,,0.00,258.0,WeatherDisplay:10.37,2013-07-03 21:51:00,
2013-07-03 17:56:00,78.6,71.5,30.08,East,82,0.0,0.0,79,0.00,BKN,,0.00,439.0,WeatherDisplay:10.37,2013-07-03 21:56:00,
2013-07-03 18:02:00,78.6,71.2,30.08,East,82,0.0,0.0,78,0.00,BKN,,0.00,327.0,WeatherDisplay:10.37,2013-07-03 22:02:00,
2013-07-03 18:07:00,78.5,71.1,30.08,East,83,1.2,1.2,78,0.00,BKN,,0.00,158.0,WeatherDisplay:10.37,2013-07-03 22:07:00,
2013-07-03 18:12:00,78.4,71.3,30.08,East,83,0.0,0.0,79,0.00,BKN,,0.00,316.0,WeatherDisplay:10.37,2013-07-03 22:12:00,
2013-07-03 18:17:00,78.4,71.7,30.08,East,83,0.0,0.0,80,0.00,BKN,,0.00,396.0,WeatherDisplay:10.37,2013-07-03 22:17:00,
2013-07-03 18:22:00,78.4,72.1,30.08,East,83,1.2,1.2,81,0.00,BKN,,0.00,153.0,WeatherDisplay:10.37,2013-07-03 22:22:00,
2013-07-03 18:28:00,78.3,71.6,30.08,East,83,0.0,0.0,80,0.00,BKN,,0.00,125.0,WeatherDisplay:10.37,2013-07-03 22:28:00,
2013-07-03 18:34:00,78.2,71.2,30.08,East,82,1.2,0.0,79,0.00,BKN,,0.00,162.0,WeatherDisplay:10.37,2013-07-03 22:34:00,
2013-07-03 18:39:00,78.2,70.8,30.08,East,80,0.0,0.0,78,0.00,BKN,,0.00,276.0,WeatherDisplay:10.37,2013-07-03 22:39:00,
2013-07-03 18:44:00,78.3,71.2,30.08,WNW,296,3.5,3.5,79,0.00,BKN,,0.00,239.0,WeatherDisplay:10.37,2013-07-03 22:44:00,
2013-07-03 18:49:00,78.3,71.2,30.08,WNW,296,0.0,0.0,79,0.00,BKN,,0.00,236.0,WeatherDisplay:10.37,2013-07-03 22:49:00,
2013-07-03 18:54:00,78.4,71.3,30.08,WNW,296,1.2,0.0,79,0.00,BKN,,0.00,227.0,WeatherDisplay:10.37,2013-07-03 22:54:00,
2013-07-03 18:59:00,78.3,71.2,30.08,WNW,296,0.0,0.0,79,0.00,BKN,,0.00,211.0,WeatherDisplay:10.37,2013-07-03 22:59:00,
2013-07-03 19:05:00,78.3,71.2,30.09,WNW,296,0.0,0.0,79,0.00,BKN,,0.00,197.0,WeatherDisplay:10.37,2013-07-03 23:05:00,
2013-07-03 19:10:00,78.3,71.2,30.09,WNW,296,0.0,0.0,79,0.00,BKN,,0.00,188.0,WeatherDisplay:10.37,2013-07-03 23:10:00,
2013-07-03 19:15:00,78.2,71.5,30.09,WNW,296,2.0,2.0,80,0.00,BKN,,0.00,172.0,WeatherDisplay:10.37,2013-07-03 23:15:00,
2013-07-03 19:20:00,78.0,70.6,30.08,West,273,0.0,0.0,78,0.00,BKN,,0.00,155.0,WeatherDisplay:10.37,2013-07-03 23:20:00,
2013-07-03 19:26:00,77.9,70.1,30.09,West,273,0.0,0.0,77,0.00,BKN,,0.00,141.0,WeatherDisplay:10.37,2013-07-03 23:26:00,
2013-07-03 19:31:00,77.8,70.8,30.09,West,273,0.0,0.0,79,0.00,BKN,,0.00,121.0,WeatherDisplay:10.37,2013-07-03 23:31:00,
2013-07-03 19:36:00,77.6,70.9,30.09,West,273,0.0,0.0,80,0.00,BKN,,0.00,104.0,WeatherDisplay:10.37,2013-07-03 23:36:00,
2013-07-03 19:42:00,77.5,71.2,30.09,West,273,0.0,0.0,81,0.00,BKN,,0.00,63.0,WeatherDisplay:10.37,2013-07-03 23:42:00,
2013-07-03 19:47:00,77.3,71.0,30.09,West,273,0.0,0.0,81,0.00,BKN,,0.00,42.0,WeatherDisplay:10.37,2013-07-03 23:47:00,
2013-07-03 19:53:00,77.1,71.2,30.09,West,273,0.0,0.0,82,0.00,BKN,,0.00,39.0,WeatherDisplay:10.37,2013-07-03 23:53:00,
2013-07-03 19:58:00,76.9,71.0,30.09,West,273,0.0,0.0,82,0.00,BKN,,0.00,37.0,WeatherDisplay:10.37,2013-07-03 23:58:00,
2013-07-03 20:04:00,76.6,70.7,30.09,West,273,0.0,0.0,82,0.00,BKN,,0.00,33.0,WeatherDisplay:10.37,2013-07-04 00:04:00,
2013-07-03 20:09:00,76.4,70.9,30.09,West,273,0.0,0.0,83,0.00,BKN,,0.00,30.0,WeatherDisplay:10.37,2013-07-04 00:09:00,
2013-07-03 20:14:00,76.2,70.7,30.09,West,273,0.0,0.0,83,0.00,SCT,,0.00,30.0,WeatherDisplay:10.37,2013-07-04 00:14:00,
2013-07-03 20:19:00,76.0,70.5,30.09,West,273,0.0,0.0,83,0.00,SCT,,0.00,23.0,WeatherDisplay:10.37,2013-07-04 00:19:00,
2013-07-03 20:24:00,75.8,70.3,30.09,West,273,0.0,0.0,83,0.00,SCT,,0.00,16.0,WeatherDisplay:10.37,2013-07-04 00:24:00,
2013-07-03 20:29:00,75.7,70.5,30.09,West,273,0.0,0.0,84,0.00,SCT,,0.00,11.0,WeatherDisplay:10.37,2013-07-04 00:29:00,
2013-07-03 20:34:00,75.5,70.3,30.09,West,273,0.0,0.0,84,0.00,FEW,,0.00,7.0,WeatherDisplay:10.37,2013-07-04 00:34:00,
2013-07-03 20:39:00,75.3,70.1,30.09,West,273,0.0,0.0,84,0.00,FEW,,0.00,5.0,WeatherDisplay:10.37,2013-07-04 00:39:00,
2013-07-03 20:45:00,75.1,69.9,30.09,West,273,0.0,0.0,84,0.00,FEW,,0.00,0.0,WeatherDisplay:10.37,2013-07-04 00:45:00,
2013-07-03 20:50:00,74.9,70.1,30.09,West,273,0.0,0.0,85,0.00,FEW,,0.00,0.0,WeatherDisplay:10.37,2013-07-04 00:50:00,
2013-07-03 20:55:00,74.7,69.9,30.09,West,273,0.0,0.0,85,0.00,FEW,,0.00,0.0,WeatherDisplay:10.37,2013-07-04 00:55:00,
2013-07-03 21:00:00,74.5,69.7,30.09,West,273,0.0,0.0,85,0.00,FEW,,0.00,0.0,WeatherDisplay:10.37,2013-07-04 01:00:00,
2013-07-03 21:06:00,74.4,69.6,30.09,West,273,0.0,0.0,85,0.00,FEW,,0.00,0.0,WeatherDisplay:10.37,2013-07-04 01:06:00,
2013-07-03 21:11:00,74.2,69.7,30.09,West,273,0.0,0.0,86,0.00,FEW,,0.00,0.0,WeatherDisplay:10.37,2013-07-04 01:11:00,
2013-07-03 21:16:00,73.9,69.4,30.09,West,273,0.0,0.0,86,0.00,FEW,,0.00,0.0,WeatherDisplay:10.37,2013-07-04 01:16:00,
2013-07-03 21:21:00,73.7,69.2,30.09,West,273,0.0,0.0,86,0.00,FEW,,0.00,0.0,WeatherDisplay:10.37,2013-07-04 01:21:00,
2013-07-03 21:26:00,73.5,69.4,30.10,West,273,0.0,0.0,87,0.00,FEW,,0.00,0.0,WeatherDisplay:10.37,2013-07-04 01:26:00,
2013-07-03 21:31:00,73.3,69.5,30.10,West,273,0.0,0.0,88,0.00,FEW,,0.00,0.0,WeatherDisplay:10.37,2013-07-04 01:31:00,
2013-07-03 21:36:00,73.2,69.4,30.10,West,273,0.0,0.0,88,0.00,SCT,,0.00,0.0,WeatherDisplay:10.37,2013-07-04 01:36:00,
2013-07-03 21:41:00,73.1,69.3,30.10,West,273,0.0,0.0,88,0.00,SCT,,0.00,0.0,WeatherDisplay:10.37,2013-07-04 01:41:00,
2013-07-03 21:47:00,73.0,69.2,30.10,West,273,0.0,0.0,88,0.00,SCT,,0.00,0.0,WeatherDisplay:10.37,2013-07-04 01:47:00,
2013-07-03 21:52:00,72.8,69.0,30.10,West,273,0.0,0.0,88,0.00,SCT,,0.00,0.0,WeatherDisplay:10.37,2013-07-04 01:52:00,
2013-07-03 21:57:00,72.6,69.2,30.10,West,273,0.0,0.0,89,0.00,SCT,,0.00,0.0,WeatherDisplay:10.37,2013-07-04 01:57:00,
2013-07-03 22:02:00,72.4,69.0,30.10,West,273,0.0,0.0,89,0.00,SCT,,0.00,0.0,WeatherDisplay:10.37,2013-07-04 02:02:00,
2013-07-03 22:08:00,72.3,68.9,30.11,West,273,0.0,0.0,89,0.00,SCT,,0.00,0.0,WeatherDisplay:10.37,2013-07-04 02:08:00,
2013-07-03 22:13:00,72.2,68.8,30.10,West,273,0.0,0.0,89,0.00,SCT,,0.00,0.0,WeatherDisplay:10.37,2013-07-04 02:13:00,
2013-07-03 22:18:00,72.1,69.0,30.11,West,273,0.0,0.0,90,0.00,SKC,,0.00,0.0,WeatherDisplay:10.37,2013-07-04 02:18:00,
2013-07-03 22:23:00,72.0,68.9,30.11,West,273,0.0,0.0,90,0.00,SKC,,0.00,0.0,WeatherDisplay:10.37,2013-07-04 02:23:00,
2013-07-03 22:28:00,71.9,68.8,30.11,West,273,0.0,0.0,90,0.00,SKC,,0.00,0.0,WeatherDisplay:10.37,2013-07-04 02:28:00,
2013-07-03 22:34:00,71.8,68.7,30.10,West,273,0.0,0.0,90,0.00,SKC,,0.00,0.0,WeatherDisplay:10.37,2013-07-04 02:34:00,
2013-07-03 22:39:00,71.7,68.6,30.11,West,273,0.0,0.0,90,0.00,SKC,,0.00,0.0,WeatherDisplay:10.37,2013-07-04 02:39:00,
2013-07-03 22:44:00,71.6,68.5,30.11,West,273,0.0,0.0,90,0.00,SKC,,0.00,0.0,WeatherDisplay:10.37,2013-07-04 02:44:00,
2013-07-03 22:49:00,71.5,68.4,30.11,West,273,0.0,0.0,90,0.00,SKC,,0.00,0.0,WeatherDisplay:10.37,2013-07-04 02:49:00,
2013-07-03 22:55:00,71.4,68.6,30.11,West,273,0.0,0.0,91,0.00,SKC,,0.00,0.0,WeatherDisplay:10.37,2013-07-04 02:55:00,
2013-07-03 23:00:00,71.3,68.5,30.11,West,273,0.0,0.0,91,0.00,SKC,,0.00,0.0,WeatherDisplay:10.37,2013-07-04 03:00:00,
2013-07-03 23:05:00,71.2,68.4,30.11,West,273,0.0,0.0,91,0.00,SKC,,0.00,0.0,WeatherDisplay:10.37,2013-07-04 03:05:00,
2013-07-03 23:10:00,71.1,68.3,30.11,West,273,0.0,0.0,91,0.00,SKC,,0.00,0.0,WeatherDisplay:10.37,2013-07-04 03:10:00,
2013-07-03 23:15:00,71.0,68.2,30.11,West,273,0.0,0.0,91,0.00,SKC,,0.00,0.0,WeatherDisplay:10.37,2013-07-04 03:15:00,
2013-07-03 23:21:00,70.9,68.5,30.11,West,273,0.0,0.0,92,0.00,FEW,,0.00,0.0,WeatherDisplay:10.37,2013-07-04 03:21:00,
2013-07-03 23:26:00,70.8,68.4,30.11,West,273,0.0,0.0,92,0.00,FEW,,0.00,0.0,WeatherDisplay:10.37,2013-07-04 03:26:00,
2013-07-03 23:31:00,70.7,68.3,30.11,West,273,0.0,0.0,92,0.00,FEW,,0.00,0.0,WeatherDisplay:10.37,2013-07-04 03:31:00,
2013-07-03 23:36:00,70.7,68.3,30.11,West,273,0.0,0.0,92,0.00,FEW,,0.00,0.0,WeatherDisplay:10.37,2013-07-04 03:36:00,
2013-07-03 23:41:00,70.6,68.2,30.11,West,273,0.0,0.0,92,0.00,FEW,,0.00,0.0,WeatherDisplay:10.37,2013-07-04 03:41:00,
2013-07-03 23:47:00,70.5,68.1,30.11,West,273,0.0,0.0,92,0.00,FEW,,0.00,0.0,WeatherDisplay:10.37,2013-07-04 03:47:00,
2013-07-03 23:52:00,70.4,68.0,30.12,West,273,0.0,0.0,92,0.00,FEW,,0.00,0.0,WeatherDisplay:10.37,2013-07-04 03:52:00,
2013-07-03 23:58:00,70.4,68.0,30.11,West,273,0.0,0.0,92,0.00,FEW,,0.00,0.0,WeatherDisplay:10.37,2013-07-04 03:58:00,